createdAt,value
2018-08-16T00:00:10.281Z,18.71
2018-08-16T00:01:20.254Z,18.7
2018-08-16T00:02:29.964Z,18.58
2018-08-16T00:03:39.695Z,18.52
2018-08-16T00:04:49.664Z,18.57
2018-08-16T00:05:59.631Z,18.45
2018-08-16T00:07:09.596Z,18.46
2018-08-16T00:08:19.318Z,18.53
2018-08-16T00:09:29.038Z,18.53
2018-08-16T00:10:38.736Z,18.57
2018-08-16T00:11:48.453Z,18.51
2018-08-16T00:12:58.157Z,18.52
2018-08-16T00:14:07.878Z,18.58
2018-08-16T00:15:17.859Z,18.58
2018-08-16T00:16:27.824Z,18.58
2018-08-16T00:17:37.542Z,18.6
2018-08-16T00:18:47.260Z,18.53
2018-08-16T00:19:57.244Z,18.51
2018-08-16T00:21:07.210Z,18.51
2018-08-16T00:22:16.655Z,18.48
2018-08-16T00:23:26.619Z,18.46
2018-08-16T00:24:36.585Z,18.34
2018-08-16T00:25:46.550Z,18.45
2018-08-16T00:26:56.256Z,18.3
2018-08-16T00:28:05.971Z,18.41
2018-08-16T00:29:15.930Z,18.36
2018-08-16T00:30:25.903Z,18.27
2018-08-16T00:31:35.858Z,18.26
2018-08-16T00:32:45.820Z,18.27
2018-08-16T00:33:55.795Z,18.24
2018-08-16T00:35:05.494Z,18.26
2018-08-16T00:36:15.464Z,18.27
2018-08-16T00:37:25.438Z,18.15
2018-08-16T00:38:35.429Z,18.13
2018-08-16T00:39:45.387Z,18.12
2018-08-16T00:40:55.352Z,18.08
2018-08-16T00:42:05.064Z,18.12
2018-08-16T00:43:15.032Z,18.13
2018-08-16T00:44:24.732Z,18.08
2018-08-16T00:45:34.708Z,18.16
2018-08-16T00:46:44.687Z,18.06
2018-08-16T00:47:54.649Z,18.12
2018-08-16T00:49:04.097Z,18.11
2018-08-16T00:50:13.558Z,18.05
2018-08-16T00:51:23.515Z,18.09
2018-08-16T00:52:32.965Z,18.02
2018-08-16T00:53:42.942Z,18.02
2018-08-16T00:54:52.913Z,18.09
2018-08-16T00:56:02.886Z,18.05
2018-08-16T00:57:12.882Z,18.03
2018-08-16T00:58:22.593Z,18.08
2018-08-16T00:59:32.309Z,18.06
2018-08-16T01:00:42.283Z,17.97
2018-08-16T01:01:52.242Z,18.02
2018-08-16T01:03:02.216Z,17.98
2018-08-16T01:04:12.172Z,18.03
2018-08-16T01:05:22.152Z,17.97
2018-08-16T01:06:32.120Z,17.95
2018-08-16T01:07:42.103Z,17.93
2018-08-16T01:08:52.070Z,17.91
2018-08-16T01:10:01.807Z,17.93
2018-08-16T01:11:11.773Z,17.88
2018-08-16T01:12:21.787Z,17.94
2018-08-16T01:13:31.751Z,17.88
2018-08-16T01:14:41.454Z,17.86
2018-08-16T01:15:51.418Z,17.8
2018-08-16T01:17:01.145Z,17.78
2018-08-16T01:18:10.854Z,17.87
2018-08-16T01:19:20.825Z,17.86
2018-08-16T01:20:30.825Z,17.73
2018-08-16T01:21:40.534Z,17.82
2018-08-16T01:22:50.237Z,17.8
2018-08-16T01:23:59.948Z,17.86
2018-08-16T01:25:09.645Z,17.79
2018-08-16T01:26:19.613Z,17.79
2018-08-16T01:27:29.594Z,17.86
2018-08-16T01:28:39.045Z,17.84
2018-08-16T01:29:49.021Z,17.82
2018-08-16T01:30:58.472Z,17.78
2018-08-16T01:32:08.440Z,17.78
2018-08-16T01:33:18.397Z,17.87
2018-08-16T01:34:28.362Z,17.86
2018-08-16T01:35:38.327Z,17.82
2018-08-16T01:36:48.329Z,17.8
2018-08-16T01:37:58.089Z,17.87
2018-08-16T01:39:07.542Z,17.88
2018-08-16T01:40:17.248Z,17.82
2018-08-16T01:41:27.215Z,17.9
2018-08-16T01:42:37.187Z,17.82
2018-08-16T01:43:47.160Z,17.87
2018-08-16T01:44:56.857Z,17.88
2018-08-16T01:46:06.828Z,17.84
2018-08-16T01:47:16.546Z,17.86
2018-08-16T01:48:26.508Z,17.88
2018-08-16T01:49:36.494Z,17.84
2018-08-16T01:50:46.463Z,17.73
2018-08-16T01:51:56.171Z,17.66
2018-08-16T01:53:05.887Z,17.68
2018-08-16T01:54:15.864Z,17.53
2018-08-16T01:55:25.835Z,17.47
2018-08-16T01:56:35.808Z,17.32
2018-08-16T01:57:45.772Z,17.28
2018-08-16T01:58:55.769Z,17.14
2018-08-16T02:00:05.476Z,17.1
2018-08-16T02:01:15.195Z,17.12
2018-08-16T02:02:25.159Z,17.16
2018-08-16T02:03:35.127Z,17.07
2018-08-16T02:04:44.834Z,16.99
2018-08-16T02:05:54.819Z,17.1
2018-08-16T02:07:04.794Z,16.99
2018-08-16T02:08:14.762Z,16.97
2018-08-16T02:09:24.482Z,17.09
2018-08-16T02:10:34.446Z,17.12
2018-08-16T02:11:44.410Z,17.04
2018-08-16T02:12:54.373Z,17.1
2018-08-16T02:14:04.342Z,17.19
2018-08-16T02:15:14.295Z,17.13
2018-08-16T02:16:23.992Z,17.12
2018-08-16T02:17:33.697Z,17.14
2018-08-16T02:18:43.398Z,17.09
2018-08-16T02:19:53.105Z,17.17
2018-08-16T02:21:02.292Z,17.05
2018-08-16T02:22:12.260Z,17.12
2018-08-16T02:23:22.228Z,17.07
2018-08-16T02:24:32.190Z,17.02
2018-08-16T02:25:41.899Z,17.13
2018-08-16T02:26:51.864Z,17.1
2018-08-16T02:28:01.566Z,17.07
2018-08-16T02:29:11.270Z,17.12
2018-08-16T02:30:20.978Z,17.07
2018-08-16T02:31:30.946Z,17.07
2018-08-16T02:32:40.926Z,17.1
2018-08-16T02:33:50.388Z,17.07
2018-08-16T02:35:00.371Z,17.13
2018-08-16T02:36:10.355Z,17.05
2018-08-16T02:37:20.331Z,17.05
2018-08-16T02:38:30.052Z,17.01
2018-08-16T02:39:39.753Z,17.04
2018-08-16T02:40:49.719Z,16.98
2018-08-16T02:41:59.432Z,17.07
2018-08-16T02:43:09.409Z,17.02
2018-08-16T02:44:18.860Z,17.07
2018-08-16T02:45:28.315Z,17.12
2018-08-16T02:46:38.273Z,17.07
2018-08-16T02:47:48.238Z,17.13
2018-08-16T02:48:58.204Z,16.99
2018-08-16T02:50:08.185Z,17.02
2018-08-16T02:51:18.153Z,17.09
2018-08-16T02:52:27.861Z,17.02
2018-08-16T02:53:37.832Z,16.94
2018-08-16T02:54:47.797Z,16.98
2018-08-16T02:55:57.503Z,16.95
2018-08-16T02:57:07.471Z,16.98
2018-08-16T02:58:17.669Z,16.84
2018-08-16T02:59:27.667Z,16.91
2018-08-16T03:00:37.636Z,16.82
2018-08-16T03:01:47.360Z,16.84
2018-08-16T03:02:57.325Z,16.86
2018-08-16T03:04:07.288Z,16.79
2018-08-16T03:05:17.005Z,16.82
2018-08-16T03:06:26.715Z,16.84
2018-08-16T03:07:36.705Z,16.91
2018-08-16T03:08:46.671Z,16.92
2018-08-16T03:09:56.638Z,16.79
2018-08-16T03:11:06.340Z,16.92
2018-08-16T03:12:16.325Z,16.86
2018-08-16T03:13:26.311Z,16.91
2018-08-16T03:14:36.021Z,16.91
2018-08-16T03:15:45.725Z,16.95
2018-08-16T03:16:55.680Z,16.97
2018-08-16T03:18:05.380Z,16.94
2018-08-16T03:19:15.086Z,16.98
2018-08-16T03:20:24.530Z,16.86
2018-08-16T03:21:34.247Z,16.86
2018-08-16T03:22:44.216Z,16.84
2018-08-16T03:23:54.184Z,16.89
2018-08-16T03:25:04.146Z,16.87
2018-08-16T03:26:14.099Z,16.83
2018-08-16T03:27:23.821Z,16.82
2018-08-16T03:28:33.520Z,16.74
2018-08-16T03:29:43.474Z,16.74
2018-08-16T03:30:53.446Z,16.77
2018-08-16T03:32:03.457Z,16.65
2018-08-16T03:33:13.435Z,16.73
2018-08-16T03:34:23.399Z,16.68
2018-08-16T03:35:33.382Z,16.69
2018-08-16T03:36:42.833Z,16.68
2018-08-16T03:37:52.869Z,16.66
2018-08-16T03:39:02.840Z,16.62
2018-08-16T03:40:12.813Z,16.65
2018-08-16T03:41:22.272Z,16.68
2018-08-16T03:42:31.984Z,16.62
2018-08-16T03:43:41.949Z,16.54
2018-08-16T03:44:51.919Z,16.61
2018-08-16T03:46:01.886Z,16.58
2018-08-16T03:47:11.843Z,16.64
2018-08-16T03:48:21.755Z,16.54
2018-08-16T03:49:31.743Z,16.64
2018-08-16T03:50:41.705Z,16.66
2018-08-16T03:51:51.671Z,16.62
2018-08-16T03:53:01.389Z,16.54
2018-08-16T03:54:10.578Z,16.59
2018-08-16T03:55:20.546Z,16.59
2018-08-16T03:56:30.504Z,16.49
2018-08-16T03:57:40.211Z,16.51
2018-08-16T03:58:50.174Z,16.41
2018-08-16T03:59:59.874Z,16.41
2018-08-16T04:01:09.596Z,16.46
2018-08-16T04:10:37.147Z,16.22
2018-08-16T04:11:46.859Z,16.26
2018-08-16T04:12:56.830Z,16.24
2018-08-16T04:14:06.798Z,16.22
2018-08-16T04:15:16.767Z,16.26
2018-08-16T04:16:26.466Z,16.24
2018-08-16T04:17:36.446Z,16.25
2018-08-16T04:18:46.528Z,16.24
2018-08-16T04:19:56.271Z,16.26
2018-08-16T04:21:06.236Z,16.37
2018-08-16T04:22:16.195Z,16.34
2018-08-16T04:23:25.896Z,16.37
2018-08-16T04:24:35.926Z,16.32
2018-08-16T04:25:45.890Z,16.43
2018-08-16T04:26:55.855Z,16.37
2018-08-16T04:28:05.813Z,16.44
2018-08-16T04:29:15.389Z,16.4
2018-08-16T04:30:25.364Z,16.46
2018-08-16T04:31:35.071Z,16.47
2018-08-16T04:32:45.029Z,16.44
2018-08-16T04:33:54.991Z,16.4
2018-08-16T04:35:04.890Z,16.43
2018-08-16T04:36:15.053Z,16.44
2018-08-16T04:37:24.750Z,16.4
2018-08-16T04:38:34.715Z,16.49
2018-08-16T04:39:44.430Z,16.43
2018-08-16T04:40:54.401Z,16.43
2018-08-16T04:42:04.432Z,16.39
2018-08-16T04:43:14.504Z,16.43
2018-08-16T04:44:24.479Z,16.43
2018-08-16T04:45:34.456Z,16.4
2018-08-16T04:46:44.174Z,16.43
2018-08-16T04:47:53.372Z,16.51
2018-08-16T04:49:03.344Z,16.43
2018-08-16T04:50:13.321Z,16.46
2018-08-16T04:51:23.283Z,16.5
2018-08-16T04:52:33.262Z,16.51
2018-08-16T04:53:43.235Z,16.57
2018-08-16T04:54:52.935Z,16.57
2018-08-16T04:56:02.914Z,16.62
2018-08-16T04:57:12.880Z,16.72
2018-08-16T04:58:22.847Z,16.76
2018-08-16T04:59:32.551Z,16.73
2018-08-16T05:00:42.519Z,16.74
2018-08-16T05:01:52.488Z,16.72
2018-08-16T05:03:02.194Z,16.8
2018-08-16T05:04:11.632Z,16.69
2018-08-16T05:05:21.596Z,16.82
2018-08-16T05:06:31.549Z,16.86
2018-08-16T05:07:41.518Z,16.92
2018-08-16T05:08:51.525Z,16.95
2018-08-16T05:10:00.989Z,16.97
2018-08-16T05:11:11.248Z,17.01
2018-08-16T05:12:21.462Z,17.1
2018-08-16T05:13:30.909Z,17.09
2018-08-16T05:14:40.865Z,17.1
2018-08-16T05:15:50.833Z,17.2
2018-08-16T05:17:00.804Z,17.22
2018-08-16T05:18:10.775Z,17.23
2018-08-16T05:19:20.756Z,17.35
2018-08-16T05:20:30.472Z,17.37
2018-08-16T05:21:40.231Z,17.46
2018-08-16T05:22:50.259Z,17.49
2018-08-16T05:24:00.606Z,17.56
2018-08-16T05:25:10.628Z,17.63
2018-08-16T05:26:20.343Z,17.68
2018-08-16T05:27:30.051Z,17.68
2018-08-16T05:28:40.014Z,17.65
2018-08-16T05:29:49.997Z,17.71
2018-08-16T05:30:59.716Z,17.69
2018-08-16T05:32:09.424Z,17.78
2018-08-16T05:33:19.140Z,17.8
2018-08-16T05:34:28.857Z,17.8
2018-08-16T05:35:38.568Z,17.86
2018-08-16T05:36:48.530Z,17.82
2018-08-16T05:37:58.232Z,17.86
2018-08-16T05:39:08.199Z,17.93
2018-08-16T05:40:18.205Z,17.88
2018-08-16T05:41:28.228Z,17.94
2018-08-16T05:42:37.949Z,17.94
2018-08-16T05:43:47.909Z,17.93
2018-08-16T05:44:57.884Z,17.97
2018-08-16T05:46:07.889Z,18.05
2018-08-16T05:47:17.608Z,18.02
2018-08-16T05:48:27.589Z,18.02
2018-08-16T05:49:37.032Z,18.11
2018-08-16T05:50:47.194Z,18.09
2018-08-16T05:51:57.168Z,18.12
2018-08-16T05:53:07.143Z,18.15
2018-08-16T05:54:17.108Z,18.23
2018-08-16T05:55:26.574Z,18.28
2018-08-16T05:56:36.286Z,18.27
2018-08-16T05:57:45.991Z,18.33
2018-08-16T05:58:55.968Z,18.45
2018-08-16T06:00:05.676Z,18.42
2018-08-16T06:01:15.662Z,18.36
2018-08-16T06:02:25.618Z,18.45
2018-08-16T06:03:35.574Z,18.51
2018-08-16T06:04:45.278Z,18.49
2018-08-16T06:05:55.268Z,18.55
2018-08-16T06:07:05.236Z,18.58
2018-08-16T06:08:15.202Z,18.71
2018-08-16T06:09:25.173Z,18.67
2018-08-16T06:10:35.177Z,18.76
2018-08-16T06:11:45.147Z,18.73
2018-08-16T06:12:55.122Z,18.86
2018-08-16T06:14:05.146Z,18.96
2018-08-16T06:15:15.114Z,18.92
2018-08-16T06:16:25.185Z,18.98
2018-08-16T06:17:35.208Z,19.08
2018-08-16T06:18:45.197Z,19.01
2018-08-16T06:19:54.900Z,19.2
2018-08-16T06:21:04.881Z,19.17
2018-08-16T06:22:14.867Z,19.2
2018-08-16T06:23:24.906Z,19.24
2018-08-16T06:24:34.633Z,19.26
2018-08-16T06:25:44.340Z,19.32
2018-08-16T06:26:54.313Z,19.37
2018-08-16T06:28:04.284Z,19.48
2018-08-16T06:29:14.263Z,19.44
2018-08-16T06:30:24.233Z,19.41
2018-08-16T06:31:33.761Z,19.53
2018-08-16T06:32:43.859Z,19.56
2018-08-16T06:33:53.857Z,19.55
2018-08-16T06:35:03.868Z,19.7
2018-08-16T06:36:13.635Z,19.82
2018-08-16T06:37:23.626Z,19.78
2018-08-16T06:38:33.393Z,19.77
2018-08-16T06:39:43.103Z,19.9
2018-08-16T06:40:53.096Z,19.9
2018-08-16T06:42:02.799Z,19.97
2018-08-16T06:43:12.015Z,20
2018-08-16T06:44:21.976Z,20.11
2018-08-16T06:45:31.947Z,20.18
2018-08-16T06:46:41.995Z,20.22
2018-08-16T06:47:51.995Z,20.21
2018-08-16T06:49:01.965Z,20.34
2018-08-16T06:50:11.674Z,20.32
2018-08-16T06:51:21.666Z,20.3
2018-08-16T06:52:31.866Z,20.49
2018-08-16T06:53:41.753Z,20.52
2018-08-16T06:54:51.714Z,20.66
2018-08-16T06:56:01.695Z,20.67
2018-08-16T06:57:11.709Z,20.75
2018-08-16T06:58:21.848Z,20.74
2018-08-16T06:59:31.962Z,20.71
2018-08-16T07:00:41.939Z,20.78
2018-08-16T07:01:51.647Z,20.89
2018-08-16T07:03:01.613Z,20.93
2018-08-16T07:04:11.580Z,20.89
2018-08-16T07:05:21.557Z,21.03
2018-08-16T07:06:31.268Z,21.03
2018-08-16T07:07:41.246Z,21.17
2018-08-16T07:08:51.215Z,21.2
2018-08-16T07:10:00.945Z,21.28
2018-08-16T07:11:10.941Z,21.37
2018-08-16T07:12:21.439Z,21.33
2018-08-16T07:13:31.787Z,21.28
2018-08-16T07:14:41.754Z,21.29
2018-08-16T07:15:51.213Z,21.33
2018-08-16T07:17:03.329Z,21.45
2018-08-16T07:18:13.395Z,21.48
2018-08-16T07:19:24.949Z,21.62
2018-08-16T07:20:35.080Z,21.6
2018-08-16T07:21:46.739Z,21.69
2018-08-16T07:22:58.574Z,21.65
2018-08-16T07:24:09.329Z,21.66
2018-08-16T07:25:19.526Z,21.69
2018-08-16T07:26:29.497Z,21.83
2018-08-16T07:27:39.229Z,21.94
2018-08-16T07:28:49.205Z,22.06
2018-08-16T07:29:59.278Z,22.15
2018-08-16T07:31:09.569Z,22.15
2018-08-16T07:32:19.605Z,22.18
2018-08-16T07:33:29.619Z,22.3
2018-08-16T07:34:39.337Z,22.33
2018-08-16T07:35:49.082Z,22.34
2018-08-16T07:36:59.069Z,22.31
2018-08-16T07:38:08.787Z,22.41
2018-08-16T07:39:18.518Z,22.38
2018-08-16T07:40:28.228Z,22.52
2018-08-16T07:41:37.959Z,22.61
2018-08-16T07:42:47.399Z,22.49
2018-08-16T07:43:57.119Z,22.58
2018-08-16T07:45:06.845Z,22.56
2018-08-16T07:46:17.563Z,22.67
2018-08-16T07:47:28.027Z,22.77
2018-08-16T07:48:37.735Z,22.88
2018-08-16T07:49:47.966Z,22.83
2018-08-16T07:50:57.711Z,22.84
2018-08-16T07:52:08.160Z,22.83
2018-08-16T07:53:18.405Z,22.86
2018-08-16T07:54:28.482Z,22.83
2018-08-16T07:55:38.452Z,22.98
2018-08-16T07:56:48.161Z,23.04
2018-08-16T07:57:58.243Z,23.06
2018-08-16T07:59:08.228Z,23.17
2018-08-16T08:00:18.245Z,23.08
2018-08-16T08:01:27.951Z,23.11
2018-08-16T08:02:37.926Z,23.13
2018-08-16T08:03:47.640Z,23.13
2018-08-16T08:04:57.368Z,23.18
2018-08-16T08:06:07.355Z,23.18
2018-08-16T08:07:17.122Z,23.26
2018-08-16T08:08:27.189Z,23.32
2018-08-16T08:09:37.974Z,23.37
2018-08-16T08:10:47.539Z,23.25
2018-08-16T08:11:57.258Z,23.33
2018-08-16T08:13:06.995Z,23.34
2018-08-16T08:14:16.716Z,23.39
2018-08-16T08:15:26.757Z,23.44
2018-08-16T08:16:36.704Z,23.49
2018-08-16T08:17:46.429Z,23.56
2018-08-16T08:18:56.406Z,23.55
2018-08-16T08:20:06.402Z,23.7
2018-08-16T08:21:16.397Z,23.71
2018-08-16T08:22:25.862Z,23.85
2018-08-16T08:23:35.592Z,23.99
2018-08-16T08:24:45.579Z,23.95
2018-08-16T08:25:55.547Z,24
2018-08-16T08:27:05.262Z,23.96
2018-08-16T08:28:15.248Z,23.99
2018-08-16T08:29:24.707Z,24.01
2018-08-16T08:30:34.451Z,24.13
2018-08-16T08:31:44.283Z,24.24
2018-08-16T08:32:54.630Z,24.19
2018-08-16T08:34:04.351Z,24.32
2018-08-16T08:35:14.073Z,24.46
2018-08-16T08:36:23.780Z,24.68
2018-08-16T08:37:33.496Z,24.75
2018-08-16T08:38:43.110Z,24.86
2018-08-16T08:39:53.257Z,25.01
2018-08-16T08:41:03.270Z,25.15
2018-08-16T08:42:13.254Z,25.15
2018-08-16T08:43:23.217Z,25.11
2018-08-16T08:44:33.186Z,25.15
2018-08-16T08:45:43.182Z,25.26
2018-08-16T08:46:53.144Z,25.37
2018-08-16T08:48:03.131Z,25.44
2018-08-16T08:49:13.113Z,25.49
2018-08-16T08:50:22.947Z,25.37
2018-08-16T08:51:32.692Z,25.54
2018-08-16T08:52:42.653Z,25.52
2018-08-16T08:53:52.640Z,25.71
2018-08-16T08:55:02.101Z,25.89
2018-08-16T08:56:12.072Z,25.96
2018-08-16T08:57:21.802Z,26.04
2018-08-16T08:58:31.528Z,25.93
2018-08-16T08:59:41.504Z,25.85
2018-08-16T09:00:51.481Z,25.74
2018-08-16T09:02:01.208Z,25.85
2018-08-16T09:03:11.240Z,25.98
2018-08-16T09:04:21.205Z,26.04
2018-08-16T09:05:30.661Z,26.19
2018-08-16T09:06:40.639Z,26.3
2018-08-16T09:07:50.675Z,26.46
2018-08-16T09:09:00.661Z,26.83
2018-08-16T09:10:10.650Z,27.16
2018-08-16T09:11:20.625Z,27.11
2018-08-16T09:12:30.629Z,27.05
2018-08-16T09:13:40.771Z,27.11
2018-08-16T09:14:50.651Z,27.16
2018-08-16T09:16:00.849Z,27.22
2018-08-16T09:17:10.823Z,27.28
2018-08-16T09:18:20.797Z,27.3
2018-08-16T09:19:30.796Z,27.52
2018-08-16T09:20:40.787Z,27.47
2018-08-16T09:21:50.545Z,27.37
2018-08-16T09:23:00.536Z,27.22
2018-08-16T09:24:10.545Z,27.2
2018-08-16T09:25:20.748Z,27.04
2018-08-16T09:26:30.737Z,27.33
2018-08-16T09:27:40.726Z,27.41
2018-08-16T09:28:50.714Z,27.52
2018-08-16T09:30:00.697Z,27.98
2018-08-16T09:31:10.905Z,28.34
2018-08-16T09:32:21.194Z,28.31
2018-08-16T09:33:31.184Z,28.34
2018-08-16T09:34:41.216Z,28.46
2018-08-16T09:35:51.205Z,28.18
2018-08-16T09:37:00.950Z,27.78
2018-08-16T09:38:10.422Z,27.67
2018-08-16T09:39:20.672Z,27.47
2018-08-16T09:40:31.047Z,27.45
2018-08-16T09:41:41.065Z,27.53
2018-08-16T09:42:51.083Z,27.5
2018-08-16T09:44:01.092Z,27.44
2018-08-16T09:45:10.870Z,27.58
2018-08-16T09:46:21.100Z,27.73
2018-08-16T09:47:30.565Z,27.83
2018-08-16T09:48:40.577Z,27.91
2018-08-16T09:49:50.549Z,27.93
2018-08-16T09:51:00.019Z,27.71
2018-08-16T09:52:09.982Z,27.5
2018-08-16T09:53:19.433Z,27.34
2018-08-16T09:54:29.415Z,27.38
2018-08-16T09:55:39.406Z,27.53
2018-08-16T09:56:49.123Z,27.57
2018-08-16T09:57:58.850Z,27.73
2018-08-16T09:59:08.575Z,27.81
2018-08-16T10:00:18.552Z,27.78
2018-08-16T10:01:28.544Z,27.72
2018-08-16T10:02:38.525Z,27.71
2018-08-16T10:03:48.505Z,27.71
2018-08-16T10:04:58.489Z,27.67
2018-08-16T10:06:08.218Z,27.67
2018-08-16T10:07:18.218Z,27.64
2018-08-16T10:08:28.204Z,27.71
2018-08-16T10:09:38.209Z,27.83
2018-08-16T10:10:47.935Z,27.97
2018-08-16T10:11:57.934Z,28.23
2018-08-16T10:13:07.646Z,28.37
2018-08-16T10:14:17.655Z,28.47
2018-08-16T10:15:27.659Z,28.47
2018-08-16T10:16:37.647Z,28.5
2018-08-16T10:17:47.139Z,28.52
2018-08-16T10:18:57.144Z,28.72
2018-08-16T10:20:06.869Z,28.46
2018-08-16T10:21:16.842Z,28.74
2018-08-16T10:22:26.634Z,28.78
2018-08-16T10:23:36.627Z,28.64
2018-08-16T10:24:46.405Z,28.64
2018-08-16T10:25:56.389Z,28.75
2018-08-16T10:27:06.809Z,28.93
2018-08-16T10:28:16.759Z,29.07
2018-08-16T10:29:26.506Z,28.93
2018-08-16T10:30:36.517Z,28.5
2018-08-16T10:31:45.976Z,28.52
2018-08-16T10:32:56.200Z,28.67
2018-08-16T10:34:06.188Z,28.83
2018-08-16T10:35:16.167Z,28.6
2018-08-16T10:36:26.159Z,28.55
2018-08-16T10:37:36.144Z,28.45
2018-08-16T10:38:45.868Z,28.52
2018-08-16T10:39:55.842Z,28.28
2018-08-16T10:41:05.823Z,28.16
2018-08-16T10:42:15.560Z,28.15
2018-08-16T10:43:25.545Z,28.27
2018-08-16T10:44:35.483Z,28.34
2018-08-16T10:45:45.402Z,28.47
2018-08-16T10:46:55.379Z,28.75
2018-08-16T10:48:05.363Z,29.06
2018-08-16T10:49:15.373Z,29.1
2018-08-16T10:50:25.371Z,29.3
2018-08-16T10:51:35.361Z,29.4
2018-08-16T10:52:45.099Z,29.55
2018-08-16T10:53:54.821Z,29.69
2018-08-16T10:55:04.545Z,29.68
2018-08-16T10:56:14.540Z,29.8
2018-08-16T10:57:24.558Z,29.58
2018-08-16T10:58:34.026Z,29.22
2018-08-16T10:59:43.755Z,28.93
2018-08-16T11:00:53.744Z,29.07
2018-08-16T11:02:03.216Z,29.1
2018-08-16T11:03:12.948Z,29.31
2018-08-16T11:04:22.942Z,29.34
2018-08-16T11:05:32.913Z,29.34
2018-08-16T11:06:42.898Z,29.4
2018-08-16T11:07:52.894Z,29.52
2018-08-16T11:09:02.616Z,29.68
2018-08-16T11:10:12.336Z,30.06
2018-08-16T11:11:22.345Z,30.24
2018-08-16T11:12:32.412Z,30.65
2018-08-16T11:13:42.133Z,30.85
2018-08-16T11:14:51.862Z,30.52
2018-08-16T11:16:01.864Z,30.51
2018-08-16T11:17:11.903Z,30.23
2018-08-16T11:18:21.625Z,29.96
2018-08-16T11:19:31.613Z,29.92
2018-08-16T11:20:41.341Z,29.86
2018-08-16T11:21:51.314Z,29.71
2018-08-16T11:23:01.306Z,29.96
2018-08-16T11:24:11.296Z,30.18
2018-08-16T11:25:21.287Z,30.23
2018-08-16T11:26:31.284Z,30.27
2018-08-16T11:27:41.264Z,30.26
2018-08-16T11:28:51.253Z,30.44
2018-08-16T11:30:01.231Z,30.23
2018-08-16T11:31:11.227Z,30.4
2018-08-16T11:32:21.251Z,30.61
2018-08-16T11:33:30.970Z,30.63
2018-08-16T11:34:40.712Z,30.56
2018-08-16T11:35:50.728Z,30.39
2018-08-16T11:37:00.207Z,30.29
2018-08-16T11:38:10.256Z,30.29
2018-08-16T11:39:20.293Z,30.44
2018-08-16T11:40:30.287Z,30.44
2018-08-16T11:41:40.605Z,30.61
2018-08-16T11:42:50.608Z,30.85
2018-08-16T11:44:00.600Z,30.61
2018-08-16T11:45:10.606Z,30.21
2018-08-16T11:46:20.333Z,30.39
2018-08-16T11:47:30.082Z,30.43
2018-08-16T11:48:39.817Z,30.38
2018-08-16T11:49:49.801Z,30.32
2018-08-16T11:50:59.538Z,30.63
2018-08-16T11:52:09.517Z,31.15
2018-08-16T11:53:19.229Z,31.62
2018-08-16T11:54:29.202Z,32.09
2018-08-16T11:55:39.219Z,32.01
2018-08-16T11:56:49.200Z,31.51
2018-08-16T11:57:58.924Z,30.92
2018-08-16T11:59:08.908Z,30.44
2018-08-16T12:00:18.626Z,30.4
2018-08-16T12:01:28.617Z,30.39
2018-08-16T12:02:38.359Z,30.49
2018-08-16T12:03:47.818Z,30.76
2018-08-16T12:04:57.806Z,30.71
2018-08-16T12:06:07.808Z,30.93
2018-08-16T12:07:17.911Z,31.33
2018-08-16T12:08:27.898Z,31.87
2018-08-16T12:09:37.647Z,31.98
2018-08-16T12:10:47.372Z,32.05
2018-08-16T12:11:57.381Z,32.15
2018-08-16T12:13:07.364Z,31.62
2018-08-16T12:14:17.363Z,31.87
2018-08-16T12:15:27.502Z,32.09
2018-08-16T12:16:37.525Z,32.56
2018-08-16T12:17:46.999Z,33.04
2018-08-16T12:18:56.741Z,33.19
2018-08-16T12:20:06.225Z,32.83
2018-08-16T12:21:16.129Z,32.24
2018-08-16T12:22:26.113Z,32
2018-08-16T12:23:35.578Z,31.82
2018-08-16T12:24:45.323Z,31.72
2018-08-16T12:25:55.064Z,31.82
2018-08-16T12:27:05.051Z,31.41
2018-08-16T12:28:15.027Z,31.18
2018-08-16T12:29:24.754Z,31.13
2018-08-16T12:30:34.737Z,30.99
2018-08-16T12:31:44.815Z,30.98
2018-08-16T12:32:54.812Z,31.41
2018-08-16T12:34:04.791Z,31.51
2018-08-16T12:35:14.769Z,31.36
2018-08-16T12:36:24.508Z,31.5
2018-08-16T12:37:34.288Z,31.54
2018-08-16T12:38:44.353Z,31.78
2018-08-16T12:39:54.350Z,31.86
2018-08-16T12:41:04.255Z,31.69
2018-08-16T12:42:14.176Z,31.63
2018-08-16T12:43:23.285Z,31.45
2018-08-16T12:44:33.266Z,31.48
2018-08-16T12:45:43.313Z,31.66
2018-08-16T12:46:53.022Z,31.44
2018-08-16T12:48:02.996Z,31.51
2018-08-16T12:49:12.969Z,31.77
2018-08-16T12:50:22.964Z,32.04
2018-08-16T12:51:32.182Z,32.2
2018-08-16T12:52:41.619Z,32.42
2018-08-16T12:53:51.606Z,32.39
2018-08-16T12:55:01.589Z,32.78
2018-08-16T12:56:11.304Z,32.94
2018-08-16T12:57:21.290Z,33.08
2018-08-16T12:58:31.016Z,32.98
2018-08-16T12:59:40.997Z,32.73
2018-08-16T13:00:50.713Z,32.38
2018-08-16T13:02:01.043Z,32.11
2018-08-16T13:03:11.112Z,32.35
2018-08-16T13:04:20.860Z,32.54
2018-08-16T13:05:30.857Z,32.46
2018-08-16T13:06:40.858Z,32.79
2018-08-16T13:07:50.586Z,33.1
2018-08-16T13:09:00.920Z,33.36
2018-08-16T13:10:11.057Z,33.48
2018-08-16T13:11:20.786Z,33.63
2018-08-16T13:12:30.782Z,33.32
2018-08-16T13:13:40.766Z,32.73
2018-08-16T13:14:50.607Z,32.78
2018-08-16T13:16:00.784Z,32.68
2018-08-16T13:17:10.525Z,32.81
2018-08-16T13:18:20.287Z,32.68
2018-08-16T13:19:30.016Z,32.54
2018-08-16T13:20:40.008Z,32.44
2018-08-16T13:21:50.006Z,32.45
2018-08-16T13:22:59.721Z,32.34
2018-08-16T13:24:09.470Z,32.51
2018-08-16T13:25:19.470Z,32.73
2018-08-16T13:26:29.455Z,32.53
2018-08-16T13:27:39.970Z,32.46
2018-08-16T13:28:50.217Z,32.12
2018-08-16T13:30:00.285Z,32.15
2018-08-16T13:31:10.491Z,32.53
2018-08-16T13:32:20.426Z,32.56
2018-08-16T13:33:30.414Z,33.03
2018-08-16T13:34:40.408Z,33.17
2018-08-16T13:35:50.385Z,33.31
2018-08-16T13:37:00.509Z,33.47
2018-08-16T13:38:10.688Z,33.33
2018-08-16T13:39:20.154Z,33.03
2018-08-16T13:40:29.635Z,32.41
2018-08-16T13:41:38.837Z,32.19
2018-08-16T13:42:48.560Z,32.27
2018-08-16T13:43:58.550Z,32.45
2018-08-16T13:45:08.539Z,32.49
2018-08-16T13:46:18.535Z,32.54
2018-08-16T13:47:28.540Z,32.57
2018-08-16T13:48:38.709Z,32.17
2018-08-16T13:49:48.550Z,31.92
2018-08-16T13:50:58.277Z,31.64
2018-08-16T13:52:08.255Z,32
2018-08-16T13:53:18.598Z,32.27
2018-08-16T13:54:28.317Z,32.68
2018-08-16T13:55:38.316Z,32.97
2018-08-16T13:56:48.305Z,33.15
2018-08-16T13:57:58.283Z,33.32
2018-08-16T13:59:08.012Z,33.77
2018-08-16T14:00:17.498Z,33.81
2018-08-16T14:01:26.993Z,33.98
2018-08-16T14:02:36.732Z,34.21
2018-08-16T14:03:46.722Z,34.02
2018-08-16T14:04:56.197Z,33.82
2018-08-16T14:06:05.930Z,33.63
2018-08-16T14:07:15.394Z,33.4
2018-08-16T14:08:25.120Z,33.36
2018-08-16T14:09:35.109Z,32.93
2018-08-16T14:10:44.579Z,32.71
2018-08-16T14:11:54.315Z,32.54
2018-08-16T14:13:04.310Z,32.67
2018-08-16T14:14:13.777Z,32.73
2018-08-16T14:15:23.768Z,32.71
2018-08-16T14:16:33.753Z,32.64
2018-08-16T14:17:43.733Z,32.56
2018-08-16T14:18:53.461Z,32.68
2018-08-16T14:20:03.193Z,32.82
2018-08-16T14:21:13.173Z,33.29
2018-08-16T14:22:23.155Z,33.82
2018-08-16T14:23:32.878Z,33.81
2018-08-16T14:24:42.623Z,33.67
2018-08-16T14:25:52.378Z,33.55
2018-08-16T14:27:02.300Z,33.29
2018-08-16T14:28:12.292Z,33.2
2018-08-16T14:29:22.296Z,33.32
2018-08-16T14:30:32.297Z,33.38
2018-08-16T14:31:42.271Z,33.47
2018-08-16T14:32:52.264Z,33.42
2018-08-16T14:34:02.266Z,33.45
2018-08-16T14:35:11.998Z,33.36
2018-08-16T14:36:21.988Z,33.45
2018-08-16T14:37:31.974Z,33.38
2018-08-16T14:38:42.157Z,33.53
2018-08-16T14:39:52.003Z,33.82
2018-08-16T14:41:01.722Z,33.76
2018-08-16T14:42:11.453Z,34
2018-08-16T14:43:21.198Z,33.89
2018-08-16T14:44:31.173Z,33.55
2018-08-16T14:45:40.920Z,33.2
2018-08-16T14:46:50.635Z,33.09
2018-08-16T14:48:00.661Z,32.94
2018-08-16T14:49:10.670Z,32.66
2018-08-16T14:50:20.664Z,32.54
2018-08-16T14:51:30.905Z,32.71
2018-08-16T14:52:40.937Z,32.83
2018-08-16T14:53:50.948Z,32.63
2018-08-16T14:55:00.676Z,32.49
2018-08-16T14:56:10.133Z,32.49
2018-08-16T14:57:19.867Z,32.41
2018-08-16T14:58:29.598Z,32.38
2018-08-16T14:59:39.584Z,32.35
2018-08-16T15:00:49.563Z,32.44
2018-08-16T15:01:59.562Z,32.72
2018-08-16T15:03:09.545Z,32.83
2018-08-16T15:04:19.535Z,32.76
2018-08-16T15:05:29.531Z,32.72
2018-08-16T15:06:39.517Z,32.56
2018-08-16T15:07:49.232Z,32.72
2018-08-16T15:08:59.223Z,33.01
2018-08-16T15:10:09.220Z,33.33